Time;durP1;ratioP1;P1;durP2;ratioP2;P2;SDS_P1;SDS_P2;PMS_P1;PMS_P2;Temp;Humidity;BMP_temperature;BMP_pressure;BME280_temperature;BME280_humidity;BME280_pressure;Samples;Min_cycle;Max_cycle;Signal;HPM_P1;HPM_P2
2022/05/03 00:00:21;;;;;;;32.00;23.30;;;;;;;12.31;47.65;99930.95;106338;1274;97859;-74
2022/05/03 00:03:14;;;;;;;31.40;22.40;;;;;;;12.30;47.61;99923.16;107570;1274;137791;-73
2022/05/03 00:05:51;;;;;;;34.30;24.10;;;;;;;12.29;47.74;99921.64;107710;1272;109006;-72
2022/05/03 00:08:29;;;;;;;34.50;24.20;;;;;;;12.30;47.83;99918.28;107583;1274;138257;-73
2022/05/03 00:11:09;;;;;;;36.30;24.20;;;;;;;12.28;47.92;99912.27;106810;1274;97819;-73
2022/05/03 00:13:54;;;;;;;36.90;25.40;;;;;;;12.22;48.06;99908.86;106714;1276;138186;-72
2022/05/03 00:16:27;;;;;;;39.60;24.60;;;;;;;12.17;48.15;99915.16;106560;1274;111696;-74
2022/05/03 00:19:01;;;;;;;40.30;26.60;;;;;;;12.14;48.10;99912.88;106384;1274;138367;-73
2022/05/03 00:21:35;;;;;;;35.60;26.80;;;;;;;12.15;48.17;99911.10;107193;1274;107925;-74
2022/05/03 00:24:08;;;;;;;34.50;26.10;;;;;;;12.17;48.13;99919.20;106316;1274;97848;-73
2022/05/03 00:26:40;;;;;;;37.30;25.60;;;;;;;12.14;48.33;99917.23;106473;1274;138450;-73
2022/05/03 00:29:13;;;;;;;32.80;25.60;;;;;;;12.09;48.26;99912.73;106193;1276;112121;-73
2022/05/03 00:31:47;;;;;;;40.40;25.20;;;;;;;12.06;48.41;99907.84;106320;1275;138338;-74
2022/05/03 00:34:20;;;;;;;37.30;25.40;;;;;;;12.02;48.47;99909.90;106278;1276;107999;-74
2022/05/03 00:36:51;;;;;;;40.50;26.10;;;;;;;11.98;48.62;99908.86;106102;1276;138413;-72
2022/05/03 00:39:23;;;;;;;41.60;26.40;;;;;;;11.92;48.63;99916.80;106856;1275;96414;-73
2022/05/03 00:42:02;;;;;;;43.20;29.60;;;;;;;11.86;48.96;99927.16;106534;1276;112846;-74
2022/05/03 00:44:58;;;;;;;40.10;28.20;;;;;;;11.77;49.26;99924.73;107527;1276;138204;-74
2022/05/03 00:47:42;;;;;;;42.40;29.30;;;;;;;11.68;49.43;99919.52;107533;1276;108843;-73
2022/05/03 00:50:29;;;;;;;41.90;29.80;;;;;;;11.63;49.48;99919.73;107223;1274;139173;-73
2022/05/03 00:53:09;;;;;;;42.90;30.70;;;;;;;11.58;49.68;99925.34;107079;1276;97846;-73
2022/05/03 00:56:20;;;;;;;45.30;28.90;;;;;;;11.54;49.80;99925.02;107523;1275;138042;-74
2022/05/03 00:59:09;;;;;;;44.60;29.80;;;;;;;11.46;49.93;99923.73;105879;1281;109169;-73
2022/05/03 01:01:54;;;;;;;40.10;30.00;;;;;;;11.42;50.05;99920.95;106003;1281;138201;-73
2022/05/03 01:04:47;;;;;;;44.60;30.30;;;;;;;11.38;50.15;99920.05;105927;1281;98054;-74
2022/05/03 01:07:31;;;;;;;39.30;28.00;;;;;;;11.34;50.32;99918.33;105872;1281;138295;-73
2022/05/03 01:10:16;;;;;;;44.70;27.90;;;;;;;11.31;50.43;99913.56;106000;1281;112478;-74
2022/05/03 01:13:02;;;;;;;38.30;27.20;;;;;;;11.29;50.55;99912.41;105808;1281;138380;-72
2022/05/03 01:15:38;;;;;;;38.20;26.30;;;;;;;11.29;50.36;99909.64;106096;1281;108510;-72
2022/05/03 01:18:26;;;;;;;40.40;27.30;;;;;;;11.29;50.50;99908.24;107093;1281;96267;-73
2022/05/03 01:21:11;;;;;;;39.70;26.70;;;;;;;11.28;50.57;99909.86;107045;1281;137956;-73
2022/05/03 01:24:02;;;;;;;38.10;27.90;;;;;;;11.28;50.48;99907.22;107157;1280;112465;-73
2022/05/03 01:27:06;;;;;;;38.20;26.70;;;;;;;11.29;50.57;99905.11;106504;1281;138235;-73
2022/05/03 01:29:38;;;;;;;39.20;26.80;;;;;;;11.28;50.69;99904.61;105861;1280;107802;-73
2022/05/03 01:32:13;;;;;;;40.10;27.30;;;;;;;11.29;50.66;99904.23;106241;1281;138555;-73
2022/05/03 01:34:48;;;;;;;40.20;26.00;;;;;;;11.30;50.68;99909.75;107613;1275;95710;-73
2022/05/03 01:37:53;;;;;;;39.70;26.10;;;;;;;11.29;50.68;99905.64;106791;1276;138108;-73
2022/05/03 01:40:42;;;;;;;41.90;26.60;;;;;;;11.27;50.74;99912.13;106365;1276;108852;-74
2022/05/03 01:43:25;;;;;;;37.80;26.40;;;;;;;11.26;50.70;99912.02;106538;1276;138797;-72
2022/05/03 01:46:08;;;;;;;39.60;27.60;;;;;;;11.23;50.88;99914.40;107158;1276;97770;-73
2022/05/03 01:52:03;;;;;;;39.80;27.30;;;;;;;11.13;51.01;99913.59;106322;1276;112919;-73
2022/05/03 01:54:59;;;;;;;37.40;27.20;;;;;;;11.09;51.09;99916.71;106303;1276;108921;-73
2022/05/03 01:57:46;;;;;;;39.90;28.10;;;;;;;11.02;51.22;99913.00;106397;1276;137730;-74
2022/05/03 02:00:17;;;;;;;;;;;;;;;10.97;51.28;99913.19;106400;1276;98443;-74
2022/05/03 02:03:02;;;;;;;37.70;26.40;;;;;;;10.91;51.47;99916.89;107004;1276;124126;-71
2022/05/03 02:05:59;;;;;;;39.90;27.60;;;;;;;10.85;51.46;99913.30;106335;1275;111874;-75
2022/05/03 02:08:50;;;;;;;42.30;27.90;;;;;;;10.80;51.63;99913.50;107221;1276;141220;-72
2022/05/03 02:11:49;;;;;;;41.50;28.80;;;;;;;10.75;51.80;99917.86;106542;1276;108182;-73
2022/05/03 02:14:45;;;;;;;39.70;27.80;;;;;;;10.69;51.96;99912.50;106161;1276;138372;-72
2022/05/03 02:17:31;;;;;;;40.60;28.10;;;;;;;10.63;52.05;99913.65;106436;1272;95610;-74
2022/05/03 02:20:20;;;;;;;38.60;27.50;;;;;;;10.57;52.08;99916.10;106393;1274;137962;-73
2022/05/03 02:23:05;;;;;;;40.00;27.90;;;;;;;10.51;52.31;99916.50;106358;1274;108950;-72
2022/05/03 02:25:50;;;;;;;40.20;28.40;;;;;;;10.46;52.45;99920.00;106373;1276;138408;-73
2022/05/03 02:28:30;;;;;;;41.20;27.10;;;;;;;10.40;52.70;99917.94;106289;1274;97815;-73
2022/05/03 02:31:04;;;;;;;38.90;27.30;;;;;;;10.35;52.78;99914.85;106829;1274;97671;-72
2022/05/03 02:33:44;;;;;;;44.40;27.10;;;;;;;10.28;52.93;99914.05;106139;1274;138056;-73
2022/05/03 02:36:18;;;;;;;41.50;25.30;;;;;;;10.21;53.03;99912.53;106383;1274;107778;-73
2022/05/03 02:38:54;;;;;;;35.40;24.30;;;;;;;10.14;53.21;99912.61;106278;1274;138038;-73
2022/05/03 02:41:28;;;;;;;35.50;23.90;;;;;;;10.06;53.21;99913.23;106475;1274;97836;-73
2022/05/03 02:44:02;;;;;;;32.00;21.90;;;;;;;9.99;53.13;99919.20;106320;1274;138021;-73
2022/05/03 02:46:54;;;;;;;32.70;22.60;;;;;;;9.93;53.17;99915.08;106726;1276;112390;-73
2022/05/03 02:49:39;;;;;;;30.50;23.30;;;;;;;9.88;53.30;99922.20;106232;1273;139560;-72
2022/05/03 02:52:28;;;;;;;32.20;21.00;;;;;;;9.84;53.18;99920.60;106500;1274;107348;-72
2022/05/03 02:55:09;;;;;;;31.60;21.30;;;;;;;9.80;53.23;99925.60;106665;1274;97855;-73
2022/05/03 02:57:51;;;;;;;29.80;20.60;;;;;;;9.78;53.28;99925.17;106881;1274;137626;-73
2022/05/03 03:03:37;;;;;;;27.80;19.50;;;;;;;9.70;53.31;99929.08;106254;1274;137873;-73
2022/05/03 03:06:21;;;;;;;25.30;16.40;;;;;;;9.67;53.22;99926.02;106368;1274;108825;-73
2022/05/03 03:08:55;;;;;;;28.10;17.50;;;;;;;9.65;53.20;99928.69;106483;1274;138035;-73
2022/05/03 03:11:52;;;;;;;21.70;16.10;;;;;;;9.64;53.07;99925.80;106722;1274;98341;-73
2022/05/03 03:14:35;;;;;;;24.40;15.90;;;;;;;9.61;52.89;99924.48;106354;1274;137792;-72
2022/05/03 03:17:09;;;;;;;21.80;14.60;;;;;;;9.60;52.96;99923.14;106555;1274;106507;-73
2022/05/03 03:20:09;;;;;;;25.40;16.60;;;;;;;9.60;52.98;99923.66;106400;1274;139140;-73
2022/05/03 03:22:43;;;;;;;20.80;14.70;;;;;;;9.60;52.98;99926.46;106821;1274;96599;-72
2022/05/03 03:25:17;;;;;;;22.70;14.90;;;;;;;9.58;52.83;99926.67;106625;1274;97917;-73
2022/05/03 03:27:53;;;;;;;21.50;14.30;;;;;;;9.59;52.65;99930.98;106150;1274;137858;-73
2022/05/03 03:30:26;;;;;;;19.80;14.20;;;;;;;9.60;52.66;99932.88;106396;1274;108738;-73
2022/05/03 03:32:59;;;;;;;22.30;14.50;;;;;;;9.62;52.64;99937.30;106052;1274;137920;-72
2022/05/03 03:35:34;;;;;;;21.20;15.10;;;;;;;9.63;52.59;99933.98;106201;1274;97927;-73
2022/05/03 03:38:08;;;;;;;19.40;13.80;;;;;;;9.64;52.61;99935.50;106379;1274;138408;-74
2022/05/03 03:40:45;;;;;;;19.50;14.00;;;;;;;9.65;52.42;99936.86;107313;1276;112408;-74
2022/05/03 03:43:16;;;;;;;;;;;;;;;9.69;52.34;99935.86;107717;1274;107653;-72
2022/05/03 03:45:49;;;;;;;18.20;12.40;;;;;;;9.73;52.14;99939.06;106740;1274;125528;-73
2022/05/03 03:48:21;;;;;;;18.30;13.20;;;;;;;9.77;52.17;99937.16;107057;1274;97886;-73
2022/05/03 03:50:55;;;;;;;22.90;14.40;;;;;;;9.82;52.11;99939.61;106463;1273;138271;-72
2022/05/03 03:53:28;;;;;;;18.50;14.00;;;;;;;9.87;52.14;99940.64;106604;1276;111784;-73
2022/05/03 03:56:00;;;;;;;23.70;14.90;;;;;;;9.91;52.05;99935.49;106641;1274;138141;-73
2022/05/03 03:58:33;;;;;;;21.70;14.90;;;;;;;9.94;51.87;99936.25;106176;1274;108276;-72
2022/05/03 04:01:05;;;;;;;22.80;13.50;;;;;;;9.95;51.87;99937.77;106513;1274;96573;-73
2022/05/03 04:03:38;;;;;;;19.80;13.80;;;;;;;9.96;51.75;99940.52;106568;1274;139189;-74
2022/05/03 04:06:10;;;;;;;22.00;13.70;;;;;;;9.98;51.77;99939.72;106339;1274;112075;-73
2022/05/03 04:08:42;;;;;;;19.90;12.80;;;;;;;10.04;51.69;99941.61;106836;1274;137747;-73
2022/05/03 04:11:19;;;;;;;19.40;12.80;;;;;;;10.11;51.42;99942.27;106177;1274;108909;-72
2022/05/03 04:13:51;;;;;;;18.90;13.10;;;;;;;10.17;51.36;99943.23;106633;1274;138319;-72
2022/05/03 04:16:23;;;;;;;22.50;13.70;;;;;;;10.27;51.36;99945.52;106184;1274;97902;-73
2022/05/03 04:18:55;;;;;;;19.50;13.40;;;;;;;10.36;51.15;99947.27;106519;1274;111414;-73
2022/05/03 04:21:27;;;;;;;19.70;12.20;;;;;;;10.45;50.93;99951.50;106097;1274;138169;-73
2022/05/03 04:23:59;;;;;;;19.20;13.00;;;;;;;10.49;50.75;99956.39;106668;1274;108132;-73
2022/05/03 04:26:31;;;;;;;22.60;12.80;;;;;;;10.53;50.66;99952.59;106189;1274;138134;-73
2022/05/03 04:29:04;;;;;;;17.50;12.20;;;;;;;10.59;50.63;99953.42;106178;1274;97834;-73
2022/05/03 04:31:37;;;;;;;18.30;12.10;;;;;;;10.71;50.39;99959.92;106150;1274;138276;-71
2022/05/03 04:34:09;;;;;;;18.20;12.20;;;;;;;10.83;50.20;99955.10;106210;1275;107788;-72
2022/05/03 04:36:41;;;;;;;15.80;10.70;;;;;;;10.97;49.87;99957.17;106320;1274;108820;-73
2022/05/03 04:39:13;;;;;;;15.20;10.80;;;;;;;11.13;49.50;99960.38;106059;1274;138373;-72
2022/05/03 04:41:45;;;;;;;18.20;12.10;;;;;;;11.32;49.24;99964.35;107101;1274;96546;-73
2022/05/03 04:44:17;;;;;;;17.80;11.40;;;;;;;11.52;49.16;99960.07;106147;1274;138054;-73
2022/05/03 04:46:49;;;;;;;19.70;15.20;;;;;;;11.70;48.76;99961.58;106291;1274;108594;-73
2022/05/03 04:49:21;;;;;;;15.50;11.70;;;;;;;11.89;48.35;99960.99;106504;1273;107524;-73
2022/05/03 04:51:54;;;;;;;17.40;11.00;;;;;;;12.08;48.05;99964.02;106416;1274;139121;-73
2022/05/03 04:54:26;;;;;;;16.60;10.40;;;;;;;12.29;47.87;99967.46;106499;1274;97726;-74
2022/05/03 04:57:03;;;;;;;15.00;10.10;;;;;;;12.67;47.79;99964.04;106269;1274;137935;-74
2022/05/03 04:59:36;;;;;;;15.70;9.50;;;;;;;13.71;47.09;99966.42;106301;1274;109930;-73
2022/05/03 05:02:08;;;;;;;13.40;8.80;;;;;;;15.51;45.40;99969.13;106301;1274;138110;-73
2022/05/03 05:04:41;;;;;;;13.30;8.40;;;;;;;17.33;43.23;99960.69;107013;1274;97837;-72
2022/05/03 05:07:13;;;;;;;13.40;8.60;;;;;;;19.11;40.90;99957.17;106234;1274;97946;-72
2022/05/03 05:12:31;;;;;;;10.60;6.90;;;;;;;22.17;35.77;99948.42;106508;1274;108818;-72
2022/05/03 05:15:03;;;;;;;9.60;6.50;;;;;;;21.82;34.17;99946.92;106142;1274;138017;-72
2022/05/03 05:17:36;;;;;;;11.60;6.60;;;;;;;22.24;33.52;99948.13;106956;1275;96545;-73
2022/05/03 05:20:10;;;;;;;9.80;6.20;;;;;;;23.43;32.36;99945.85;106466;1274;137924;-73
2022/05/03 05:22:42;;;;;;;8.90;5.90;;;;;;;24.56;31.07;99940.52;106603;1274;112421;-71
2022/05/03 05:25:36;;;;;;;7.30;5.30;;;;;;;25.87;29.19;99935.30;106211;1275;139111;-72
2022/05/03 05:28:11;;;;;;;8.70;5.20;;;;;;;27.04;27.71;99930.27;106917;1274;108895;-75
2022/05/03 05:30:43;;;;;;;7.40;5.00;;;;;;;28.05;26.43;99931.27;107718;1274;96249;-72
2022/05/03 05:33:15;;;;;;;7.30;4.10;;;;;;;28.93;25.09;99923.20;107295;1274;137943;-72
2022/05/03 05:35:48;;;;;;;5.10;4.10;;;;;;;29.71;24.28;99925.78;106373;1274;112716;-72
2022/05/03 05:38:20;;;;;;;5.90;4.10;;;;;;;30.41;23.11;99923.02;106385;1276;137808;-71
2022/05/03 05:40:52;;;;;;;8.60;4.20;;;;;;;31.05;22.34;99920.64;106242;1274;108863;-71
2022/05/03 05:43:24;;;;;;;5.40;4.00;;;;;;;31.67;21.38;99922.15;106201;1276;98017;-73
2022/05/03 05:45:56;;;;;;;6.30;4.20;;;;;;;32.15;20.80;99922.95;106309;1274;137438;-73
2022/05/03 05:48:28;;;;;;;6.00;3.90;;;;;;;32.69;20.04;99914.84;106610;1273;111892;-73
2022/05/03 05:51:00;;;;;;;6.20;3.50;;;;;;;32.97;19.48;99920.36;106735;1273;137701;-73
2022/05/03 05:53:35;;;;;;;6.00;3.70;;;;;;;33.24;18.98;99923.86;106822;1274;108605;-73
2022/05/03 05:56:07;;;;;;;7.10;3.80;;;;;;;33.75;18.19;99917.39;106856;1274;137849;-73
2022/05/03 05:58:39;;;;;;;4.70;3.40;;;;;;;33.99;17.65;99918.95;106380;1274;97852;-72
2022/05/03 06:01:12;;;;;;;4.20;3.60;;;;;;;34.38;17.55;99921.52;106311;1275;112562;-73
2022/05/03 06:03:44;;;;;;;4.30;3.20;;;;;;;34.76;17.14;99923.89;106302;1274;138191;-73
2022/05/03 06:06:15;;;;;;;3.60;2.90;;;;;;;35.16;16.67;99921.94;106202;1274;108333;-72
2022/05/03 06:08:47;;;;;;;5.30;2.90;;;;;;;35.46;16.18;99918.77;105992;1274;137747;-72
2022/05/03 06:11:19;;;;;;;4.20;3.00;;;;;;;35.34;15.80;99923.96;106645;1274;97735;-72
2022/05/03 06:13:51;;;;;;;3.50;2.50;;;;;;;35.49;15.58;99922.23;106041;1275;139677;-72
2022/05/03 06:16:23;;;;;;;4.00;2.90;;;;;;;35.87;15.67;99925.38;106979;1274;109030;-72
2022/05/03 06:18:56;;;;;;;2.80;2.30;;;;;;;36.36;15.09;99931.77;106335;1276;108970;-72
2022/05/03 06:21:28;;;;;;;4.80;2.80;;;;;;;36.41;14.47;99930.79;106070;1274;137978;-72
2022/05/03 06:24:00;;;;;;;4.60;2.90;;;;;;;36.36;14.43;99931.80;106192;1276;97823;-71
2022/05/03 06:26:34;;;;;;;7.40;2.30;;;;;;;36.50;14.31;99932.77;106045;1274;137658;-72
2022/05/03 06:29:08;;;;;;;5.00;2.40;;;;;;;36.72;14.01;99934.16;106293;1274;109354;-73
2022/05/03 06:31:42;;;;;;;3.90;2.20;;;;;;;36.84;13.88;99933.95;106184;1274;137973;-71
2022/05/03 06:34:14;;;;;;;4.50;2.70;;;;;;;37.08;13.35;99927.79;106263;1274;97836;-72
2022/05/03 06:36:49;;;;;;;3.80;2.30;;;;;;;37.12;13.26;99930.73;106314;1274;98234;-71
2022/05/03 06:39:21;;;;;;;3.70;2.40;;;;;;;37.18;13.13;99928.87;106034;1274;137457;-71
2022/05/03 06:41:53;;;;;;;4.10;2.80;;;;;;;37.12;13.08;99928.02;106301;1275;107242;-71
2022/05/03 06:44:26;;;;;;;5.40;2.60;;;;;;;37.15;12.99;99933.51;106190;1274;137855;-71
2022/05/03 06:46:58;;;;;;;3.60;2.40;;;;;;;37.33;12.82;99939.09;106437;1274;97960;-72
2022/05/03 06:49:30;;;;;;;5.10;2.70;;;;;;;37.58;12.85;99934.62;106446;1274;97824;-72
2022/05/03 06:52:03;;;;;;;2.90;2.50;;;;;;;37.66;12.82;99932.05;106268;1274;137830;-72
2022/05/03 06:54:51;;;;;;;5.40;2.40;;;;;;;37.77;12.60;99936.02;106217;1276;108315;-72
2022/05/03 06:57:23;;;;;;;5.50;2.90;;;;;;;37.77;12.48;99936.19;106556;1275;137731;-71
2022/05/03 06:59:56;;;;;;;7.10;2.90;;;;;;;37.72;12.41;99934.08;106742;1274;97631;-72
2022/05/03 07:02:31;;;;;;;3.90;2.80;;;;;;;37.95;12.22;99934.21;106434;1274;138030;-72
2022/05/03 07:05:04;;;;;;;4.30;2.60;;;;;;;37.88;12.18;99933.12;106227;1274;111938;-72
2022/05/03 07:07:38;;;;;;;6.70;2.80;;;;;;;37.92;12.06;99937.75;106546;1274;108055;-71
2022/05/03 07:10:11;;;;;;;5.20;2.30;;;;;;;37.94;12.04;99942.15;106022;1274;138021;-72
2022/05/03 07:12:45;;;;;;;9.50;2.80;;;;;;;37.83;11.84;99940.77;106231;1274;97832;-72
2022/05/03 07:15:18;;;;;;;4.10;2.90;;;;;;;37.63;12.06;99939.77;106250;1274;137635;-72
2022/05/03 07:23:29;;;;;;;3.60;2.50;;;;;;;37.49;11.84;99943.34;106163;1274;108024;-73
2022/05/03 07:26:02;;;;;;;4.50;2.60;;;;;;;37.34;11.79;99945.36;106578;1274;138447;-72
2022/05/03 07:28:34;;;;;;;3.60;2.30;;;;;;;37.10;11.87;99954.10;106373;1275;97909;-72
2022/05/03 07:31:06;;;;;;;3.30;2.40;;;;;;;37.16;11.87;99952.65;106609;1274;111899;-72
2022/05/03 07:33:38;;;;;;;3.60;2.40;;;;;;;37.28;11.88;99954.23;106447;1274;138722;-72
2022/05/03 07:36:10;;;;;;;5.40;2.40;;;;;;;37.30;11.90;99957.30;106145;1276;108773;-72
2022/05/03 07:38:43;;;;;;;4.30;2.40;;;;;;;37.44;11.78;99956.59;106080;1274;138358;-72
2022/05/03 07:41:15;;;;;;;4.10;2.40;;;;;;;37.50;11.71;99957.84;106519;1274;96243;-72
2022/05/03 07:43:48;;;;;;;3.30;2.50;;;;;;;37.25;11.36;99956.48;106284;1274;111355;-72
2022/05/03 07:46:20;;;;;;;5.60;2.80;;;;;;;36.87;11.55;99967.41;106816;1274;137679;-72
2022/05/03 07:48:52;;;;;;;3.30;2.10;;;;;;;36.77;11.85;99966.63;106706;1274;106809;-72
2022/05/03 07:51:24;;;;;;;3.50;2.60;;;;;;;36.96;11.86;99968.89;106347;1276;137874;-73
2022/05/03 07:53:56;;;;;;;4.30;2.60;;;;;;;37.13;11.65;99966.95;107164;1274;95886;-74
2022/05/03 07:56:28;;;;;;;4.30;2.80;;;;;;;36.97;11.62;99971.34;107109;1274;138443;-72
2022/05/03 07:59:00;;;;;;;5.00;2.40;;;;;;;36.74;11.61;99973.93;106591;1274;108800;-72
2022/05/03 08:01:32;;;;;;;4.90;2.70;;;;;;;36.49;11.43;99973.04;106363;1274;108876;-73
2022/05/03 08:04:05;;;;;;;3.90;2.50;;;;;;;36.27;11.64;99972.89;107065;1274;138991;-72
2022/05/03 08:06:37;;;;;;;3.70;2.20;;;;;;;36.30;11.92;99975.86;106511;1275;97709;-72
2022/05/03 08:09:09;;;;;;;3.70;2.10;;;;;;;36.66;12.06;99974.31;106461;1274;137549;-72
2022/05/03 08:11:45;;;;;;;4.50;2.20;;;;;;;36.69;11.72;99971.54;106330;1274;108837;-72
2022/05/03 08:14:17;;;;;;;8.30;2.70;;;;;;;36.56;11.81;99972.08;106034;1274;138451;-73
2022/05/03 08:16:50;;;;;;;6.30;2.40;;;;;;;36.35;11.67;99970.65;106422;1274;96450;-72
2022/05/03 08:19:22;;;;;;;8.60;2.40;;;;;;;36.20;11.92;99976.21;106182;1274;97840;-74
2022/05/03 08:21:56;;;;;;;3.20;2.80;;;;;;;36.22;11.96;99974.27;106053;1275;137843;-73
2022/05/03 08:24:29;;;;;;;5.20;2.50;;;;;;;36.09;11.77;99978.23;106125;1276;108414;-73
2022/05/03 08:27:02;;;;;;;8.60;3.10;;;;;;;35.76;11.84;99975.41;106495;1274;137947;-72
2022/05/03 08:29:34;;;;;;;5.10;2.60;;;;;;;35.49;12.03;99981.43;106596;1274;97849;-73
2022/05/03 08:32:09;;;;;;;4.40;3.00;;;;;;;35.42;12.15;99976.09;106688;1274;137854;-73
2022/05/03 08:34:41;;;;;;;5.40;2.80;;;;;;;35.40;12.33;99975.63;107662;1274;112572;-71
2022/05/03 08:42:52;;;;;;;3.70;2.70;;;;;;;34.80;12.33;99979.67;106427;1274;97822;-74
2022/05/03 08:45:24;;;;;;;3.50;2.50;;;;;;;34.77;12.60;99982.52;106698;1274;137569;-73
2022/05/03 08:48:01;;;;;;;3.60;2.70;;;;;;;34.67;12.73;99983.40;106541;1274;111550;-72
2022/05/03 08:50:35;;;;;;;6.40;3.00;;;;;;;34.71;12.56;99980.13;106559;1273;138249;-72
2022/05/03 08:53:08;;;;;;;3.10;2.60;;;;;;;34.38;12.58;99978.39;106197;1274;107310;-73
2022/05/03 08:55:42;;;;;;;5.70;3.00;;;;;;;34.24;12.62;99980.22;106355;1276;97858;-71
2022/05/03 08:58:18;;;;;;;4.20;3.10;;;;;;;33.86;12.67;99975.11;106242;1274;137514;-72
2022/05/03 09:00:50;;;;;;;3.80;2.90;;;;;;;33.20;12.96;99981.80;106269;1275;112453;-74
2022/05/03 09:03:24;;;;;;;4.60;3.10;;;;;;;32.96;13.21;99985.44;106103;1274;138327;-73
2022/05/03 09:05:56;;;;;;;9.30;3.00;;;;;;;33.06;13.36;99974.84;106432;1274;107756;-72
2022/05/03 09:08:28;;;;;;;6.80;2.60;;;;;;;33.16;13.54;99973.83;106053;1274;138928;-72
2022/05/03 09:11:01;;;;;;;4.80;3.20;;;;;;;32.79;13.47;99969.83;106194;1274;97773;-74
2022/05/03 09:13:44;;;;;;;6.80;3.20;;;;;;;32.00;13.93;99969.39;106265;1276;112060;-72
2022/05/03 09:16:17;;;;;;;4.20;3.00;;;;;;;31.57;14.26;99966.45;106062;1276;137516;-72
2022/05/03 09:18:50;;;;;;;6.40;3.00;;;;;;;31.14;14.60;99960.83;106214;1275;107588;-72
2022/05/03 09:24:18;;;;;;;5.00;2.70;;;;;;;30.68;14.85;99963.27;107413;1274;96496;-73
2022/05/03 09:26:50;;;;;;;6.30;3.20;;;;;;;30.50;14.94;99965.35;106247;1274;138586;-73
2022/05/03 09:29:23;;;;;;;3.30;2.50;;;;;;;30.32;14.93;99967.88;106331;1274;109694;-74
2022/05/03 09:31:57;;;;;;;9.60;2.80;;;;;;;30.10;15.40;99964.08;106723;1274;108901;-71
2022/05/03 09:34:33;;;;;;;4.60;2.80;;;;;;;30.18;15.36;99965.66;106663;1276;137623;-73
2022/05/03 09:37:06;;;;;;;4.20;2.60;;;;;;;29.81;15.41;99968.42;106205;1274;97842;-72
2022/05/03 09:39:47;;;;;;;7.40;2.70;;;;;;;29.80;15.68;99967.94;106839;1274;137704;-73
2022/05/03 09:42:21;;;;;;;4.70;2.50;;;;;;;29.98;16.02;99969.54;106397;1274;108449;-72
2022/05/03 09:44:58;;;;;;;4.30;2.90;;;;;;;30.32;15.84;99968.51;106159;1276;138216;-73
2022/05/03 09:47:33;;;;;;;9.70;3.10;;;;;;;30.56;15.22;99959.00;106282;1274;97991;-73
2022/05/03 09:50:06;;;;;;;6.20;2.80;;;;;;;30.41;15.03;99954.59;106280;1274;97846;-74
2022/05/03 09:52:40;;;;;;;7.10;2.50;;;;;;;30.35;15.08;99955.29;106550;1273;137995;-73
2022/05/03 09:55:13;;;;;;;4.70;2.70;;;;;;;30.35;15.14;99959.52;106195;1274;108538;-74
2022/05/03 09:57:45;;;;;;;3.00;2.20;;;;;;;30.46;15.18;99952.38;106251;1274;137861;-72
2022/05/03 10:00:18;;;;;;;3.90;2.40;;;;;;;30.56;15.45;99949.59;106234;1274;97625;-71
2022/05/03 10:02:53;;;;;;;6.40;3.10;;;;;;;30.13;15.40;99948.06;106775;1274;137624;-72
2022/05/03 10:05:27;;;;;;;3.90;2.30;;;;;;;29.61;15.66;99952.83;106767;1274;112504;-72
2022/05/03 10:07:59;;;;;;;4.50;2.80;;;;;;;29.54;15.99;99952.56;106466;1274;107855;-73
2022/05/03 10:10:32;;;;;;;3.90;2.80;;;;;;;29.67;16.18;99953.55;106075;1274;137643;-73
2022/05/03 10:13:04;;;;;;;3.00;2.40;;;;;;;29.70;16.25;99962.86;106266;1274;97889;-73
2022/05/03 10:21:35;;;;;;;4.80;2.60;;;;;;;29.95;16.17;99954.19;105911;1278;137663;-73
2022/05/03 10:24:10;;;;;;;6.70;2.60;;;;;;;29.55;16.05;99956.87;106091;1277;108433;-72
2022/05/03 10:27:06;;;;;;;5.60;2.80;;;;;;;28.64;16.60;99958.77;106070;1279;138110;-71
2022/05/03 10:29:39;;;;;;;7.40;4.80;;;;;;;27.80;16.88;99964.86;106123;1278;97848;-73
2022/05/03 10:32:16;;;;;;;6.20;3.30;;;;;;;27.58;17.25;99965.90;106112;1278;111879;-73
2022/05/03 10:34:53;;;;;;;4.50;2.60;;;;;;;27.35;17.65;99962.55;105982;1278;137818;-72
2022/05/03 10:37:37;;;;;;;;;;;;;;;26.71;17.61;99963.62;106570;1278;109115;-72
2022/05/03 10:40:13;;;;;;;3.30;2.30;;;;;;;26.34;18.31;99965.26;106612;1279;125958;-73
2022/05/03 10:43:06;;;;;;;5.20;2.40;;;;;;;26.44;18.27;99963.67;106827;1279;97838;-73
2022/05/03 10:45:55;;;;;;;4.10;2.40;;;;;;;26.07;18.73;99966.09;106145;1277;137942;-73
2022/05/03 10:48:36;;;;;;;6.70;2.60;;;;;;;25.41;18.76;99970.48;106383;1278;108900;-73
2022/05/03 10:51:11;;;;;;;5.10;3.00;;;;;;;24.69;19.27;99972.98;105883;1278;137882;-73
2022/05/03 10:53:43;;;;;;;6.60;3.10;;;;;;;24.24;19.73;99978.72;106148;1274;97974;-74
2022/05/03 10:56:21;;;;;;;6.00;3.00;;;;;;;24.19;20.43;99977.55;106256;1274;97862;-72
2022/05/03 10:59:14;;;;;;;6.20;3.00;;;;;;;24.00;20.38;99979.86;106269;1274;137522;-70
2022/05/03 11:02:10;;;;;;;4.40;3.00;;;;;;;23.46;20.84;99973.27;106257;1274;108694;-72
2022/05/03 11:05:18;;;;;;;3.60;2.70;;;;;;;22.94;21.24;99980.75;106370;1274;137915;-73
2022/05/03 11:08:18;;;;;;;5.10;2.70;;;;;;;22.35;21.74;99983.69;106376;1274;97992;-73
2022/05/03 11:10:50;;;;;;;5.30;3.10;;;;;;;22.04;22.39;99976.56;106005;1274;373415;-72
2022/05/03 11:13:44;;;;;;;4.80;3.00;;;;;;;22.01;22.57;99968.83;106330;1274;111915;-74
2022/05/03 11:16:29;;;;;;;5.40;3.40;;;;;;;21.89;22.91;99968.44;106165;1276;137750;-73
2022/05/03 11:19:08;;;;;;;5.00;3.70;;;;;;;21.80;23.09;99970.10;106769;1274;107543;-72
2022/05/03 11:21:41;;;;;;;9.10;3.60;;;;;;;21.54;23.59;99970.83;105958;1274;138667;-73
2022/05/03 11:24:22;;;;;;;6.00;3.30;;;;;;;21.23;23.55;99966.79;106595;1274;97966;-73
2022/05/03 11:26:56;;;;;;;4.90;3.30;;;;;;;21.03;23.60;99969.95;106136;1274;137963;-72
2022/05/03 11:29:31;;;;;;;6.10;3.80;;;;;;;21.03;23.93;99970.91;106198;1274;108152;-73
2022/05/03 11:32:06;;;;;;;6.20;3.90;;;;;;;20.84;24.17;99970.27;106294;1274;108485;-73
2022/05/03 11:34:39;;;;;;;8.10;4.00;;;;;;;20.82;24.77;99972.56;106650;1274;137771;-73
2022/05/03 11:37:11;;;;;;;6.50;4.30;;;;;;;20.73;24.61;99975.38;106438;1274;97826;-74
2022/05/03 11:39:43;;;;;;;7.00;3.80;;;;;;;20.73;24.90;99970.11;106388;1274;137801;-73
2022/05/03 11:42:15;;;;;;;4.90;3.50;;;;;;;20.82;24.77;99968.52;106160;1274;109048;-73
2022/05/03 11:44:47;;;;;;;8.80;4.00;;;;;;;21.17;25.25;99968.70;106226;1274;137917;-73
2022/05/03 11:47:19;;;;;;;4.50;3.80;;;;;;;21.41;24.62;99970.87;106401;1274;98054;-73
2022/05/03 11:49:53;;;;;;;5.80;3.60;;;;;;;21.44;24.41;99967.10;106193;1274;98009;-74
2022/05/03 11:58:06;;;;;;;4.50;3.30;;;;;;;21.62;24.38;99962.52;106512;1274;137680;-73
2022/05/03 12:00:49;;;;;;;8.80;3.10;;;;;;;21.86;24.97;99959.68;106592;1274;97839;-73
2022/05/03 12:03:21;;;;;;;7.30;3.00;;;;;;;21.81;24.52;99956.05;106508;1274;137663;-73
2022/05/03 12:06:01;;;;;;;3.80;2.80;;;;;;;21.62;24.36;99959.94;106245;1274;111585;-73
2022/05/03 12:08:34;;;;;;;5.20;2.80;;;;;;;21.39;24.43;99962.89;106920;1274;138050;-73
2022/05/03 12:11:16;;;;;;;4.60;3.30;;;;;;;21.30;24.82;99960.61;107684;1274;109155;-74
2022/05/03 12:13:48;;;;;;;5.50;3.00;;;;;;;21.08;24.73;99957.58;107678;1274;95768;-73
2022/05/03 12:16:27;;;;;;;5.60;3.00;;;;;;;20.80;24.72;99963.51;106075;1277;138564;-72
2022/05/03 12:19:00;;;;;;;4.00;2.40;;;;;;;20.60;24.80;99958.78;106242;1277;111453;-74
2022/05/03 12:21:32;;;;;;;7.10;2.90;;;;;;;20.39;25.02;99965.85;106262;1277;137739;-73
2022/05/03 12:24:07;;;;;;;6.60;2.60;;;;;;;20.34;25.09;99962.16;106221;1274;108387;-72
2022/05/03 12:26:41;;;;;;;3.10;2.20;;;;;;;20.35;25.16;99962.11;106360;1274;138188;-72
2022/05/03 12:29:14;;;;;;;5.40;2.50;;;;;;;20.46;25.03;99954.85;106291;1274;97832;-71
2022/05/03 12:31:47;;;;;;;4.40;2.40;;;;;;;20.56;24.95;99949.39;106412;1274;112578;-72